sensor_id;sensor_type;location;lat;lon;timestamp;pressure;altitude;pressure_sealevel;temperature;humidity
15056;BME280;7626;42.674;23.284;2022-12-11T00:01:48;92712.31;;;12.40;81.48
15056;BME280;7626;42.674;23.284;2022-12-11T00:04:15;92743.81;;;12.22;82.08
15056;BME280;7626;42.674;23.284;2022-12-11T00:06:41;92724.28;;;12.26;82.33
15056;BME280;7626;42.674;23.284;2022-12-11T00:09:08;92726.53;;;12.29;82.27
15056;BME280;7626;42.674;23.284;2022-12-11T00:11:36;92726.00;;;12.34;82.06
15056;BME280;7626;42.674;23.284;2022-12-11T00:14:03;92729.22;;;12.21;82.60
15056;BME280;7626;42.674;23.284;2022-12-11T00:16:30;92730.63;;;12.09;83.17
15056;BME280;7626;42.674;23.284;2022-12-11T00:18:57;92698.13;;;12.28;82.42
15056;BME280;7626;42.674;23.284;2022-12-11T00:21:24;92721.88;;;12.25;82.35
15056;BME280;7626;42.674;23.284;2022-12-11T00:23:51;92713.63;;;12.21;82.94
15056;BME280;7626;42.674;23.284;2022-12-11T00:26:17;92710.31;;;12.27;82.88
15056;BME280;7626;42.674;23.284;2022-12-11T00:28:46;92726.97;;;12.33;82.21
15056;BME280;7626;42.674;23.284;2022-12-11T00:31:14;92715.34;;;12.29;82.59
15056;BME280;7626;42.674;23.284;2022-12-11T00:33:41;92727.88;;;12.25;82.70
15056;BME280;7626;42.674;23.284;2022-12-11T00:36:10;92718.56;;;12.31;82.57
15056;BME280;7626;42.674;23.284;2022-12-11T00:38:37;92714.25;;;12.38;81.85
15056;BME280;7626;42.674;23.284;2022-12-11T00:41:04;92697.53;;;12.41;81.62
15056;BME280;7626;42.674;23.284;2022-12-11T00:43:31;92709.06;;;12.38;81.89
15056;BME280;7626;42.674;23.284;2022-12-11T00:45:59;92707.19;;;12.17;82.77
15056;BME280;7626;42.674;23.284;2022-12-11T00:48:26;92706.00;;;12.20;82.79
15056;BME280;7626;42.674;23.284;2022-12-11T00:50:53;92694.84;;;12.34;81.99
15056;BME280;7626;42.674;23.284;2022-12-11T00:53:19;92705.75;;;12.29;82.73
15056;BME280;7626;42.674;23.284;2022-12-11T00:55:46;92690.97;;;12.30;82.74
15056;BME280;7626;42.674;23.284;2022-12-11T00:58:13;92696.06;;;12.38;82.09
15056;BME280;7626;42.674;23.284;2022-12-11T01:00:41;92709.69;;;12.25;82.72
15056;BME280;7626;42.674;23.284;2022-12-11T01:03:10;92700.03;;;12.34;82.62
15056;BME280;7626;42.674;23.284;2022-12-11T01:05:38;92694.94;;;12.41;82.01
15056;BME280;7626;42.674;23.284;2022-12-11T01:08:05;92722.38;;;12.20;82.81
15056;BME280;7626;42.674;23.284;2022-12-11T01:10:32;92716.16;;;12.29;82.77
15056;BME280;7626;42.674;23.284;2022-12-11T01:13:00;92696.72;;;12.40;82.16
15056;BME280;7626;42.674;23.284;2022-12-11T01:15:29;92703.00;;;12.46;81.50
15056;BME280;7626;42.674;23.284;2022-12-11T01:17:56;92698.56;;;12.31;82.20
15056;BME280;7626;42.674;23.284;2022-12-11T01:20:26;92737.81;;;12.37;82.02
15056;BME280;7626;42.674;23.284;2022-12-11T01:22:56;92747.88;;;12.40;81.82
15056;BME280;7626;42.674;23.284;2022-12-11T01:25:23;92711.03;;;12.36;82.17
15056;BME280;7626;42.674;23.284;2022-12-11T01:27:50;92708.97;;;12.31;83.11
15056;BME280;7626;42.674;23.284;2022-12-11T01:30:19;92687.66;;;12.36;82.87
15056;BME280;7626;42.674;23.284;2022-12-11T01:32:46;92674.94;;;12.41;82.74
15056;BME280;7626;42.674;23.284;2022-12-11T01:35:13;92680.75;;;12.43;82.79
15056;BME280;7626;42.674;23.284;2022-12-11T01:37:41;92681.06;;;12.48;82.18
15056;BME280;7626;42.674;23.284;2022-12-11T01:40:11;92673.16;;;12.42;82.87
15056;BME280;7626;42.674;23.284;2022-12-11T01:42:39;92666.16;;;12.42;83.16
15056;BME280;7626;42.674;23.284;2022-12-11T01:45:28;92617.66;;;12.49;83.02
15056;BME280;7626;42.674;23.284;2022-12-11T01:48:00;92624.50;;;12.50;82.52
15056;BME280;7626;42.674;23.284;2022-12-11T01:50:29;92613.00;;;12.45;82.33
15056;BME280;7626;42.674;23.284;2022-12-11T01:53:00;92645.19;;;12.59;80.90
15056;BME280;7626;42.674;23.284;2022-12-11T01:55:27;92620.91;;;12.66;80.40
15056;BME280;7626;42.674;23.284;2022-12-11T01:57:54;92642.31;;;12.68;81.04
15056;BME280;7626;42.674;23.284;2022-12-11T02:00:21;92673.84;;;12.95;76.31
15056;BME280;7626;42.674;23.284;2022-12-11T02:02:48;92651.47;;;13.01;75.20
15056;BME280;7626;42.674;23.284;2022-12-11T02:05:15;92664.50;;;13.01;75.18
15056;BME280;7626;42.674;23.284;2022-12-11T02:07:45;92654.16;;;13.22;71.02
15056;BME280;7626;42.674;23.284;2022-12-11T02:10:16;92611.25;;;13.18;71.62
15056;BME280;7626;42.674;23.284;2022-12-11T02:12:52;92600.91;;;13.25;70.82
15056;BME280;7626;42.674;23.284;2022-12-11T02:15:27;92622.75;;;13.24;71.04
15056;BME280;7626;42.674;23.284;2022-12-11T02:18:06;92584.84;;;13.36;70.62
15056;BME280;7626;42.674;23.284;2022-12-11T02:20:37;92583.03;;;13.37;70.75
15056;BME280;7626;42.674;23.284;2022-12-11T02:23:18;92563.47;;;13.41;71.06
15056;BME280;7626;42.674;23.284;2022-12-11T02:25:54;92502.09;;;13.53;69.72
15056;BME280;7626;42.674;23.284;2022-12-11T02:28:32;92515.81;;;13.69;69.81
15056;BME280;7626;42.674;23.284;2022-12-11T02:31:03;92520.50;;;13.80;69.74
15056;BME280;7626;42.674;23.284;2022-12-11T02:33:35;92519.16;;;13.91;68.79
15056;BME280;7626;42.674;23.284;2022-12-11T02:36:07;92536.63;;;13.97;69.90
15056;BME280;7626;42.674;23.284;2022-12-11T02:38:37;92557.84;;;13.94;70.20
15056;BME280;7626;42.674;23.284;2022-12-11T02:41:06;92546.69;;;14.00;70.54
15056;BME280;7626;42.674;23.284;2022-12-11T02:43:35;92617.44;;;14.04;70.84
15056;BME280;7626;42.674;23.284;2022-12-11T02:46:05;92581.19;;;14.09;70.28
15056;BME280;7626;42.674;23.284;2022-12-11T02:48:33;92582.81;;;14.10;70.74
15056;BME280;7626;42.674;23.284;2022-12-11T02:51:03;92578.81;;;14.14;68.33
15056;BME280;7626;42.674;23.284;2022-12-11T02:53:34;92577.06;;;14.21;66.98
15056;BME280;7626;42.674;23.284;2022-12-11T02:56:08;92586.91;;;14.26;66.99
15056;BME280;7626;42.674;23.284;2022-12-11T02:58:41;92595.72;;;14.25;66.81
15056;BME280;7626;42.674;23.284;2022-12-11T03:01:11;92592.09;;;14.26;66.57
15056;BME280;7626;42.674;23.284;2022-12-11T03:03:37;92580.31;;;14.30;66.79
15056;BME280;7626;42.674;23.284;2022-12-11T03:06:05;92558.25;;;14.32;66.24
15056;BME280;7626;42.674;23.284;2022-12-11T03:08:31;92560.66;;;14.27;66.67
15056;BME280;7626;42.674;23.284;2022-12-11T03:10:58;92578.69;;;14.29;66.70
15056;BME280;7626;42.674;23.284;2022-12-11T03:13:25;92567.69;;;14.33;66.37
15056;BME280;7626;42.674;23.284;2022-12-11T03:16:03;92584.59;;;14.38;66.48
15056;BME280;7626;42.674;23.284;2022-12-11T03:18:38;92557.13;;;14.42;67.44
15056;BME280;7626;42.674;23.284;2022-12-11T03:21:12;92581.00;;;14.45;67.39
15056;BME280;7626;42.674;23.284;2022-12-11T03:23:45;92565.16;;;14.47;67.02
15056;BME280;7626;42.674;23.284;2022-12-11T03:26:17;92603.88;;;14.50;67.05
15056;BME280;7626;42.674;23.284;2022-12-11T03:28:49;92583.44;;;14.53;67.31
15056;BME280;7626;42.674;23.284;2022-12-11T03:31:22;92575.41;;;14.55;67.18
15056;BME280;7626;42.674;23.284;2022-12-11T03:33:52;92580.44;;;14.57;67.40
15056;BME280;7626;42.674;23.284;2022-12-11T03:36:22;92599.91;;;14.54;66.95
15056;BME280;7626;42.674;23.284;2022-12-11T03:38:52;92587.72;;;14.61;67.02
15056;BME280;7626;42.674;23.284;2022-12-11T03:41:21;92602.75;;;14.59;67.32
15056;BME280;7626;42.674;23.284;2022-12-11T03:43:52;92594.94;;;14.59;66.65
15056;BME280;7626;42.674;23.284;2022-12-11T03:46:26;92628.06;;;14.65;66.50
15056;BME280;7626;42.674;23.284;2022-12-11T03:48:55;92610.81;;;14.64;66.69
15056;BME280;7626;42.674;23.284;2022-12-11T03:51:25;92628.47;;;14.62;66.76
15056;BME280;7626;42.674;23.284;2022-12-11T03:53:54;92643.91;;;14.64;66.73
15056;BME280;7626;42.674;23.284;2022-12-11T03:56:23;92663.69;;;14.58;65.71
15056;BME280;7626;42.674;23.284;2022-12-11T03:58:51;92657.16;;;14.62;65.43
15056;BME280;7626;42.674;23.284;2022-12-11T04:01:18;92677.59;;;14.65;64.76
15056;BME280;7626;42.674;23.284;2022-12-11T04:03:47;92653.34;;;14.65;64.75
15056;BME280;7626;42.674;23.284;2022-12-11T04:06:14;92687.84;;;14.67;64.60
15056;BME280;7626;42.674;23.284;2022-12-11T04:08:40;92702.66;;;14.60;65.01
15056;BME280;7626;42.674;23.284;2022-12-11T04:11:08;92695.44;;;14.62;65.20
15056;BME280;7626;42.674;23.284;2022-12-11T04:13:52;92673.78;;;14.61;65.31
15056;BME280;7626;42.674;23.284;2022-12-11T04:16:33;92685.84;;;14.62;65.53
15056;BME280;7626;42.674;23.284;2022-12-11T04:19:01;92675.00;;;14.65;64.97
15056;BME280;7626;42.674;23.284;2022-12-11T04:21:56;92672.00;;;14.68;64.86
15056;BME280;7626;42.674;23.284;2022-12-11T04:24:49;92701.72;;;14.67;65.08
15056;BME280;7626;42.674;23.284;2022-12-11T04:27:17;92703.50;;;14.67;65.24
15056;BME280;7626;42.674;23.284;2022-12-11T04:30:06;92700.47;;;14.63;65.17
15056;BME280;7626;42.674;23.284;2022-12-11T04:32:33;92705.50;;;14.65;64.96
15056;BME280;7626;42.674;23.284;2022-12-11T04:35:02;92704.69;;;14.64;64.76
15056;BME280;7626;42.674;23.284;2022-12-11T04:37:29;92704.09;;;14.62;64.02
15056;BME280;7626;42.674;23.284;2022-12-11T04:39:55;92708.66;;;14.60;63.90
15056;BME280;7626;42.674;23.284;2022-12-11T04:42:22;92752.81;;;14.62;63.74
15056;BME280;7626;42.674;23.284;2022-12-11T04:44:49;92732.78;;;14.62;63.06
15056;BME280;7626;42.674;23.284;2022-12-11T04:47:16;92752.63;;;14.63;62.51
15056;BME280;7626;42.674;23.284;2022-12-11T04:49:43;92767.34;;;14.71;61.79
15056;BME280;7626;42.674;23.284;2022-12-11T04:52:11;92753.91;;;14.74;61.81
15056;BME280;7626;42.674;23.284;2022-12-11T04:54:38;92722.81;;;14.72;62.51
15056;BME280;7626;42.674;23.284;2022-12-11T04:57:05;92735.25;;;14.70;62.37
15056;BME280;7626;42.674;23.284;2022-12-11T04:59:32;92778.94;;;14.68;62.21
15056;BME280;7626;42.674;23.284;2022-12-11T05:01:58;92766.72;;;14.69;62.02
15056;BME280;7626;42.674;23.284;2022-12-11T05:04:27;92715.53;;;14.68;61.64
15056;BME280;7626;42.674;23.284;2022-12-11T05:06:56;92743.63;;;14.66;60.10
15056;BME280;7626;42.674;23.284;2022-12-11T05:09:24;92721.38;;;14.70;60.47
15056;BME280;7626;42.674;23.284;2022-12-11T05:11:51;92760.69;;;14.68;60.01
15056;BME280;7626;42.674;23.284;2022-12-11T05:14:19;92714.59;;;14.76;59.69
15056;BME280;7626;42.674;23.284;2022-12-11T05:16:46;92740.88;;;14.74;59.72
15056;BME280;7626;42.674;23.284;2022-12-11T05:19:12;92733.66;;;14.76;59.82
15056;BME280;7626;42.674;23.284;2022-12-11T05:21:39;92694.94;;;14.80;59.50
15056;BME280;7626;42.674;23.284;2022-12-11T05:24:06;92772.78;;;14.76;60.27
15056;BME280;7626;42.674;23.284;2022-12-11T05:26:34;92714.03;;;14.80;59.54
15056;BME280;7626;42.674;23.284;2022-12-11T05:29:01;92729.88;;;14.79;59.77
15056;BME280;7626;42.674;23.284;2022-12-11T05:31:28;92710.22;;;14.83;59.46
15056;BME280;7626;42.674;23.284;2022-12-11T05:33:55;92706.25;;;14.87;59.48
15056;BME280;7626;42.674;23.284;2022-12-11T05:36:23;92725.69;;;14.84;60.21
15056;BME280;7626;42.674;23.284;2022-12-11T05:38:51;92710.44;;;14.88;60.15
15056;BME280;7626;42.674;23.284;2022-12-11T05:41:20;92724.09;;;14.90;60.70
15056;BME280;7626;42.674;23.284;2022-12-11T05:43:48;92711.03;;;14.90;60.69
15056;BME280;7626;42.674;23.284;2022-12-11T05:46:16;92714.44;;;14.84;60.70
15056;BME280;7626;42.674;23.284;2022-12-11T05:48:44;92701.25;;;14.92;60.92
15056;BME280;7626;42.674;23.284;2022-12-11T05:51:12;92705.22;;;14.88;61.10
15056;BME280;7626;42.674;23.284;2022-12-11T05:53:41;92694.78;;;14.88;60.91
15056;BME280;7626;42.674;23.284;2022-12-11T05:56:10;92683.75;;;14.86;60.11
15056;BME280;7626;42.674;23.284;2022-12-11T05:58:37;92687.56;;;14.90;60.43
15056;BME280;7626;42.674;23.284;2022-12-11T06:01:08;92690.16;;;14.90;60.40
15056;BME280;7626;42.674;23.284;2022-12-11T06:03:35;92706.03;;;14.88;60.30
15056;BME280;7626;42.674;23.284;2022-12-11T06:06:02;92681.56;;;14.89;60.50
15056;BME280;7626;42.674;23.284;2022-12-11T06:08:30;92668.50;;;14.89;59.87
15056;BME280;7626;42.674;23.284;2022-12-11T06:10:57;92668.69;;;14.88;59.31
15056;BME280;7626;42.674;23.284;2022-12-11T06:13:24;92666.69;;;14.90;59.01
15056;BME280;7626;42.674;23.284;2022-12-11T06:15:51;92664.53;;;14.94;58.77
15056;BME280;7626;42.674;23.284;2022-12-11T06:18:20;92687.19;;;14.93;58.76
15056;BME280;7626;42.674;23.284;2022-12-11T06:20:47;92728.75;;;14.95;58.48
15056;BME280;7626;42.674;23.284;2022-12-11T06:23:13;92693.84;;;15.02;58.14
15056;BME280;7626;42.674;23.284;2022-12-11T06:25:40;92722.94;;;14.99;58.54
15056;BME280;7626;42.674;23.284;2022-12-11T06:28:07;92691.44;;;15.01;57.89
15056;BME280;7626;42.674;23.284;2022-12-11T06:30:34;92725.19;;;15.02;57.54
15056;BME280;7626;42.674;23.284;2022-12-11T06:33:01;92699.06;;;15.02;57.39
15056;BME280;7626;42.674;23.284;2022-12-11T06:35:29;92724.59;;;15.07;57.32
15056;BME280;7626;42.674;23.284;2022-12-11T06:37:56;92727.41;;;15.05;57.23
15056;BME280;7626;42.674;23.284;2022-12-11T06:40:23;92737.22;;;15.03;58.01
15056;BME280;7626;42.674;23.284;2022-12-11T06:42:50;92783.78;;;15.06;58.56
15056;BME280;7626;42.674;23.284;2022-12-11T06:45:17;92733.44;;;15.13;57.83
15056;BME280;7626;42.674;23.284;2022-12-11T06:47:43;92713.16;;;15.15;57.77
15056;BME280;7626;42.674;23.284;2022-12-11T06:50:11;92736.47;;;15.16;58.30
15056;BME280;7626;42.674;23.284;2022-12-11T06:52:39;92749.72;;;15.15;58.59
15056;BME280;7626;42.674;23.284;2022-12-11T06:55:06;92733.25;;;15.14;59.04
15056;BME280;7626;42.674;23.284;2022-12-11T06:57:33;92730.47;;;15.16;59.24
15056;BME280;7626;42.674;23.284;2022-12-11T07:00:00;92748.72;;;15.16;59.16
15056;BME280;7626;42.674;23.284;2022-12-11T07:02:26;92748.34;;;15.19;59.06
15056;BME280;7626;42.674;23.284;2022-12-11T07:04:53;92745.94;;;15.17;58.91
15056;BME280;7626;42.674;23.284;2022-12-11T07:07:20;92734.13;;;15.21;58.76
15056;BME280;7626;42.674;23.284;2022-12-11T07:09:48;92753.19;;;15.22;58.78
15056;BME280;7626;42.674;23.284;2022-12-11T07:12:15;92750.56;;;15.22;58.96
15056;BME280;7626;42.674;23.284;2022-12-11T07:14:42;92749.56;;;15.23;59.02
15056;BME280;7626;42.674;23.284;2022-12-11T07:17:09;92772.47;;;15.27;59.04
15056;BME280;7626;42.674;23.284;2022-12-11T07:19:36;92746.56;;;15.26;59.22
15056;BME280;7626;42.674;23.284;2022-12-11T07:22:04;92755.03;;;15.28;57.93
15056;BME280;7626;42.674;23.284;2022-12-11T07:24:31;92717.06;;;15.32;58.26
15056;BME280;7626;42.674;23.284;2022-12-11T07:26:59;92745.00;;;15.32;58.97
15056;BME280;7626;42.674;23.284;2022-12-11T07:29:26;92698.59;;;15.34;58.80
15056;BME280;7626;42.674;23.284;2022-12-11T07:31:53;92762.06;;;15.34;57.63
15056;BME280;7626;42.674;23.284;2022-12-11T07:34:19;92742.81;;;15.42;57.26
15056;BME280;7626;42.674;23.284;2022-12-11T07:36:46;92762.53;;;15.44;57.70
15056;BME280;7626;42.674;23.284;2022-12-11T07:39:13;92772.97;;;15.44;58.04
15056;BME280;7626;42.674;23.284;2022-12-11T07:41:40;92767.75;;;15.44;58.34
15056;BME280;7626;42.674;23.284;2022-12-11T07:44:08;92800.50;;;15.47;58.21
15056;BME280;7626;42.674;23.284;2022-12-11T07:46:36;92763.94;;;15.47;58.18
15056;BME280;7626;42.674;23.284;2022-12-11T07:49:03;92777.59;;;15.49;58.94
15056;BME280;7626;42.674;23.284;2022-12-11T07:51:32;92813.16;;;15.50;59.41
15056;BME280;7626;42.674;23.284;2022-12-11T07:54:01;92781.03;;;15.50;59.70
15056;BME280;7626;42.674;23.284;2022-12-11T07:56:29;92768.97;;;15.49;60.04
15056;BME280;7626;42.674;23.284;2022-12-11T07:58:58;92783.22;;;15.46;59.58
15056;BME280;7626;42.674;23.284;2022-12-11T08:01:28;92798.47;;;15.49;58.08
15056;BME280;7626;42.674;23.284;2022-12-11T08:03:55;92806.94;;;15.51;58.00
15056;BME280;7626;42.674;23.284;2022-12-11T08:06:25;92769.56;;;15.51;58.75
15056;BME280;7626;42.674;23.284;2022-12-11T08:08:52;92773.38;;;15.48;59.13
15056;BME280;7626;42.674;23.284;2022-12-11T08:11:19;92789.25;;;15.46;57.71
15056;BME280;7626;42.674;23.284;2022-12-11T08:13:46;92784.63;;;15.49;57.76
15056;BME280;7626;42.674;23.284;2022-12-11T08:16:14;92801.09;;;15.49;57.83
15056;BME280;7626;42.674;23.284;2022-12-11T08:18:43;92829.03;;;15.49;57.58
15056;BME280;7626;42.674;23.284;2022-12-11T08:21:12;92835.88;;;15.50;57.50
15056;BME280;7626;42.674;23.284;2022-12-11T08:23:39;92799.13;;;15.51;57.54
15056;BME280;7626;42.674;23.284;2022-12-11T08:26:08;92814.59;;;15.53;58.10
15056;BME280;7626;42.674;23.284;2022-12-11T08:28:35;92829.25;;;15.54;58.48
15056;BME280;7626;42.674;23.284;2022-12-11T08:31:03;92805.53;;;15.55;58.40
15056;BME280;7626;42.674;23.284;2022-12-11T08:33:30;92837.09;;;15.54;58.63
15056;BME280;7626;42.674;23.284;2022-12-11T08:36:01;92827.66;;;15.53;58.02
15056;BME280;7626;42.674;23.284;2022-12-11T08:38:28;92835.50;;;15.53;58.37
15056;BME280;7626;42.674;23.284;2022-12-11T08:40:55;92813.56;;;15.54;59.03
15056;BME280;7626;42.674;23.284;2022-12-11T08:43:22;92821.22;;;15.55;59.98
15056;BME280;7626;42.674;23.284;2022-12-11T08:45:49;92817.63;;;15.56;60.55
15056;BME280;7626;42.674;23.284;2022-12-11T08:48:16;92817.81;;;15.55;61.41
15056;BME280;7626;42.674;23.284;2022-12-11T08:50:43;92819.63;;;15.54;62.49
15056;BME280;7626;42.674;23.284;2022-12-11T08:53:11;92840.53;;;15.54;62.65
15056;BME280;7626;42.674;23.284;2022-12-11T08:55:38;92818.78;;;15.54;62.89
15056;BME280;7626;42.674;23.284;2022-12-11T08:58:04;92835.88;;;15.50;65.52
15056;BME280;7626;42.674;23.284;2022-12-11T09:00:31;92835.47;;;15.46;66.70
15056;BME280;7626;42.674;23.284;2022-12-11T09:02:58;92843.50;;;15.51;67.53
15056;BME280;7626;42.674;23.284;2022-12-11T09:05:25;92817.19;;;15.53;67.52
15056;BME280;7626;42.674;23.284;2022-12-11T09:07:52;92821.44;;;15.60;67.79
15056;BME280;7626;42.674;23.284;2022-12-11T09:10:20;92821.63;;;15.59;67.62
15056;BME280;7626;42.674;23.284;2022-12-11T09:12:46;92830.59;;;15.78;65.01
15056;BME280;7626;42.674;23.284;2022-12-11T09:15:13;92808.44;;;15.74;61.96
15056;BME280;7626;42.674;23.284;2022-12-11T09:17:40;92802.03;;;16.51;59.86
15056;BME280;7626;42.674;23.284;2022-12-11T09:20:07;92805.03;;;16.48;60.47
15056;BME280;7626;42.674;23.284;2022-12-11T09:22:34;92809.47;;;16.81;59.15
15056;BME280;7626;42.674;23.284;2022-12-11T09:25:01;92825.19;;;16.95;58.47
15056;BME280;7626;42.674;23.284;2022-12-11T09:27:29;92802.03;;;16.91;59.18
15056;BME280;7626;42.674;23.284;2022-12-11T09:29:56;92808.88;;;16.92;59.30
15056;BME280;7626;42.674;23.284;2022-12-11T09:32:22;92840.88;;;17.08;57.02
15056;BME280;7626;42.674;23.284;2022-12-11T09:34:49;92796.22;;;17.68;55.18
15056;BME280;7626;42.674;23.284;2022-12-11T09:37:16;92795.47;;;17.54;54.66
15056;BME280;7626;42.674;23.284;2022-12-11T09:39:43;92784.47;;;17.77;54.03
15056;BME280;7626;42.674;23.284;2022-12-11T09:42:14;92776.06;;;17.69;54.99
15056;BME280;7626;42.674;23.284;2022-12-11T09:44:47;92786.34;;;17.70;54.79
15056;BME280;7626;42.674;23.284;2022-12-11T09:47:24;92769.44;;;18.11;54.61
15056;BME280;7626;42.674;23.284;2022-12-11T09:49:59;92773.56;;;18.57;53.98
15056;BME280;7626;42.674;23.284;2022-12-11T09:52:31;92807.28;;;18.86;52.20
15056;BME280;7626;42.674;23.284;2022-12-11T09:55:03;92760.81;;;18.86;50.98
15056;BME280;7626;42.674;23.284;2022-12-11T09:57:42;92777.44;;;18.48;52.29
15056;BME280;7626;42.674;23.284;2022-12-11T10:00:19;92778.00;;;18.25;53.66
15056;BME280;7626;42.674;23.284;2022-12-11T10:03:10;92780.88;;;18.17;54.32
15056;BME280;7626;42.674;23.284;2022-12-11T10:05:48;92776.88;;;18.14;54.49
15056;BME280;7626;42.674;23.284;2022-12-11T10:08:20;92768.50;;;17.92;53.75
15056;BME280;7626;42.674;23.284;2022-12-11T10:10:56;92774.66;;;17.66;53.79
15056;BME280;7626;42.674;23.284;2022-12-11T10:13:33;92789.38;;;17.67;54.20
15056;BME280;7626;42.674;23.284;2022-12-11T10:16:10;92777.34;;;17.46;54.25
15056;BME280;7626;42.674;23.284;2022-12-11T10:18:41;92776.81;;;17.24;54.01
15056;BME280;7626;42.674;23.284;2022-12-11T10:21:08;92773.00;;;17.13;53.87
15056;BME280;7626;42.674;23.284;2022-12-11T10:23:42;92768.56;;;17.27;54.12
15056;BME280;7626;42.674;23.284;2022-12-11T10:26:13;92775.56;;;17.33;54.33
15056;BME280;7626;42.674;23.284;2022-12-11T10:28:41;92785.25;;;17.26;56.29
15056;BME280;7626;42.674;23.284;2022-12-11T10:31:15;92779.03;;;17.20;57.35
15056;BME280;7626;42.674;23.284;2022-12-11T10:33:53;92780.44;;;17.16;58.48
15056;BME280;7626;42.674;23.284;2022-12-11T10:36:26;92779.44;;;17.17;59.35
15056;BME280;7626;42.674;23.284;2022-12-11T10:38:53;92767.88;;;17.45;59.85
15056;BME280;7626;42.674;23.284;2022-12-11T10:41:23;92763.47;;;17.91;58.20
15056;BME280;7626;42.674;23.284;2022-12-11T10:43:58;92761.84;;;18.53;56.53
15056;BME280;7626;42.674;23.284;2022-12-11T10:46:28;92761.00;;;19.10;55.64
15056;BME280;7626;42.674;23.284;2022-12-11T10:48:58;92745.91;;;19.42;54.77
15056;BME280;7626;42.674;23.284;2022-12-11T10:51:33;92755.25;;;19.94;52.77
15056;BME280;7626;42.674;23.284;2022-12-11T10:54:04;92742.84;;;20.25;52.20
15056;BME280;7626;42.674;23.284;2022-12-11T10:56:33;92747.34;;;20.36;49.77
15056;BME280;7626;42.674;23.284;2022-12-11T10:59:01;92744.91;;;20.22;49.84
15056;BME280;7626;42.674;23.284;2022-12-11T11:01:30;92744.66;;;19.63;49.19
15056;BME280;7626;42.674;23.284;2022-12-11T11:04:01;92738.09;;;19.36;48.77
15056;BME280;7626;42.674;23.284;2022-12-11T11:06:29;92753.13;;;19.10;48.46
15056;BME280;7626;42.674;23.284;2022-12-11T11:08:57;92737.09;;;19.00;49.50
15056;BME280;7626;42.674;23.284;2022-12-11T11:11:27;92743.78;;;18.96;51.02
15056;BME280;7626;42.674;23.284;2022-12-11T11:14:11;92740.59;;;18.62;52.09
15056;BME280;7626;42.674;23.284;2022-12-11T11:16:42;92741.78;;;18.91;51.75
15056;BME280;7626;42.674;23.284;2022-12-11T11:19:17;92740.88;;;18.79;52.85
15056;BME280;7626;42.674;23.284;2022-12-11T11:21:48;92753.66;;;18.68;54.35
15056;BME280;7626;42.674;23.284;2022-12-11T11:24:27;92754.50;;;18.69;55.23
15056;BME280;7626;42.674;23.284;2022-12-11T11:26:55;92756.50;;;18.42;54.48
15056;BME280;7626;42.674;23.284;2022-12-11T11:29:27;92744.94;;;18.24;55.60
15056;BME280;7626;42.674;23.284;2022-12-11T11:31:59;92754.03;;;18.21;55.85
15056;BME280;7626;42.674;23.284;2022-12-11T11:34:29;92763.09;;;18.26;56.14
15056;BME280;7626;42.674;23.284;2022-12-11T11:36:56;92745.34;;;18.21;54.31
15056;BME280;7626;42.674;23.284;2022-12-11T11:39:30;92740.13;;;18.21;54.69
15056;BME280;7626;42.674;23.284;2022-12-11T11:42:02;92737.28;;;18.23;55.04
15056;BME280;7626;42.674;23.284;2022-12-11T11:44:33;92737.50;;;18.21;55.30
15056;BME280;7626;42.674;23.284;2022-12-11T11:47:09;92741.75;;;18.15;55.60
15056;BME280;7626;42.674;23.284;2022-12-11T11:49:48;92746.28;;;18.01;55.90
15056;BME280;7626;42.674;23.284;2022-12-11T11:52:20;92721.00;;;17.75;56.17
15056;BME280;7626;42.674;23.284;2022-12-11T11:54:57;92726.81;;;17.77;54.68
15056;BME280;7626;42.674;23.284;2022-12-11T11:57:34;92724.44;;;17.69;56.33
15056;BME280;7626;42.674;23.284;2022-12-11T12:00:16;92718.78;;;17.72;56.44
15056;BME280;7626;42.674;23.284;2022-12-11T12:02:46;92725.47;;;17.68;56.81
15056;BME280;7626;42.674;23.284;2022-12-11T12:05:16;92732.97;;;17.58;57.50
15056;BME280;7626;42.674;23.284;2022-12-11T12:07:52;92722.47;;;17.58;58.12
15056;BME280;7626;42.674;23.284;2022-12-11T12:10:27;92721.13;;;17.48;58.90
15056;BME280;7626;42.674;23.284;2022-12-11T12:13:02;92728.16;;;17.48;59.56
15056;BME280;7626;42.674;23.284;2022-12-11T12:15:38;92721.16;;;17.42;59.74
15056;BME280;7626;42.674;23.284;2022-12-11T12:18:17;92729.03;;;17.28;60.33
15056;BME280;7626;42.674;23.284;2022-12-11T12:20:50;92735.53;;;17.19;60.77
15056;BME280;7626;42.674;23.284;2022-12-11T12:23:34;92726.91;;;16.99;61.49
15056;BME280;7626;42.674;23.284;2022-12-11T12:26:09;92734.94;;;17.04;58.24
15056;BME280;7626;42.674;23.284;2022-12-11T12:28:42;92722.88;;;17.09;58.76
15056;BME280;7626;42.674;23.284;2022-12-11T12:34:22;92751.28;;;16.79;60.62
15056;BME280;7626;42.674;23.284;2022-12-11T12:36:58;92760.16;;;16.71;60.72
15056;BME280;7626;42.674;23.284;2022-12-11T12:39:34;92769.00;;;16.37;62.06
15056;BME280;7626;42.674;23.284;2022-12-11T12:42:12;92784.28;;;16.20;62.19
15056;BME280;7626;42.674;23.284;2022-12-11T12:44:49;92789.19;;;15.81;62.38
15056;BME280;7626;42.674;23.284;2022-12-11T12:47:19;92777.22;;;15.59;62.59
15056;BME280;7626;42.674;23.284;2022-12-11T12:49:48;92790.13;;;15.67;61.98
15056;BME280;7626;42.674;23.284;2022-12-11T12:52:18;92793.25;;;15.49;60.86
15056;BME280;7626;42.674;23.284;2022-12-11T12:54:50;92792.41;;;15.35;61.38
15056;BME280;7626;42.674;23.284;2022-12-11T12:57:32;92810.69;;;15.35;60.43
15056;BME280;7626;42.674;23.284;2022-12-11T13:00:00;92799.53;;;15.13;60.33
15056;BME280;7626;42.674;23.284;2022-12-11T13:02:28;92800.19;;;14.94;60.51
15056;BME280;7626;42.674;23.284;2022-12-11T13:04:59;92823.53;;;14.30;60.94
15056;BME280;7626;42.674;23.284;2022-12-11T13:07:29;92830.28;;;14.03;61.67
15056;BME280;7626;42.674;23.284;2022-12-11T13:09:59;92821.53;;;14.32;62.08
15056;BME280;7626;42.674;23.284;2022-12-11T13:12:40;92840.78;;;14.75;63.12
15056;BME280;7626;42.674;23.284;2022-12-11T13:15:33;92856.78;;;14.93;63.41
15056;BME280;7626;42.674;23.284;2022-12-11T13:18:02;92856.63;;;15.01;63.01